createdAt,value
2019-02-23T00:00:12.599Z,87.70
2019-02-23T00:02:45.612Z,88.10
2019-02-23T00:05:19.130Z,88.20
2019-02-23T00:07:52.680Z,87.80
2019-02-23T00:10:26.241Z,88.30
2019-02-23T00:13:02.712Z,88.60
2019-02-23T00:15:38.120Z,88.90
2019-02-23T00:18:12.849Z,89.10
2019-02-23T00:20:46.290Z,89.40
2019-02-23T00:23:22.147Z,89.80
2019-02-23T00:25:55.585Z,90.00
2019-02-23T00:28:29.045Z,90.10
2019-02-23T00:34:30.786Z,90.20
2019-02-23T00:37:04.228Z,90.30
2019-02-23T00:39:37.775Z,90.30
2019-02-23T00:42:11.215Z,90.50
2019-02-23T00:44:44.909Z,90.70
2019-02-23T00:47:18.352Z,91.00
2019-02-23T00:49:51.821Z,91.10
2019-02-23T00:52:27.397Z,91.40
2019-02-23T00:55:00.923Z,91.60
2019-02-23T00:57:34.393Z,91.50
2019-02-23T01:00:10.403Z,91.40
2019-02-23T01:02:43.878Z,91.90
2019-02-23T01:05:17.454Z,92.50
2019-02-23T01:07:53.416Z,92.70
2019-02-23T01:10:26.971Z,92.60
2019-02-23T01:13:02.184Z,92.80
2019-02-23T01:15:35.633Z,92.80
2019-02-23T01:18:13.363Z,93.00
2019-02-23T01:20:49.609Z,93.00
2019-02-23T01:23:24.773Z,92.90
2019-02-23T01:25:58.277Z,93.00
2019-02-23T01:28:31.773Z,93.10
2019-02-23T01:31:06.961Z,92.90
2019-02-23T01:33:40.470Z,93.20
2019-02-23T01:36:17.082Z,93.20
2019-02-23T01:38:52.276Z,93.10
2019-02-23T01:41:25.754Z,93.00
2019-02-23T01:44:00.562Z,93.00
2019-02-23T01:46:35.598Z,93.20
2019-02-23T01:49:09.170Z,93.30
2019-02-23T01:54:44.375Z,92.90
2019-02-23T01:57:17.844Z,92.90
2019-02-23T01:59:51.413Z,93.00
2019-02-23T02:02:24.890Z,93.50
2019-02-23T02:04:58.378Z,93.60
2019-02-23T02:07:37.970Z,93.40
2019-02-23T02:10:15.044Z,93.20
2019-02-23T02:12:50.145Z,93.10
2019-02-23T02:15:29.785Z,93.00
2019-02-23T02:18:05.917Z,92.60
2019-02-23T02:20:39.430Z,92.40
2019-02-23T02:23:12.868Z,92.20
2019-02-23T02:25:46.344Z,91.90
2019-02-23T02:28:19.781Z,91.90
2019-02-23T02:30:59.432Z,92.40
2019-02-23T02:33:32.921Z,92.40
2019-02-23T02:36:08.147Z,92.70
2019-02-23T02:38:41.662Z,94.20
2019-02-23T02:41:16.913Z,94.50
2019-02-23T02:43:50.639Z,95.10
2019-02-23T02:46:25.765Z,95.40
2019-02-23T02:48:59.244Z,95.00
2019-02-23T02:51:33.003Z,95.40
2019-02-23T02:54:06.604Z,95.60
2019-02-23T02:56:41.212Z,95.40
2019-02-23T02:59:17.741Z,95.50
2019-02-23T03:01:52.847Z,95.50
2019-02-23T03:04:29.304Z,95.40
2019-02-23T03:07:06.369Z,95.50
2019-02-23T03:09:39.955Z,95.30
2019-02-23T03:12:13.460Z,95.20
2019-02-23T03:14:47.036Z,95.20
2019-02-23T03:17:23.266Z,95.20
2019-02-23T03:19:58.479Z,95.20
2019-02-23T03:22:32.053Z,95.10
2019-02-23T03:25:07.749Z,95.00
2019-02-23T03:27:41.282Z,94.80
2019-02-23T03:30:14.928Z,94.60
2019-02-23T03:32:48.360Z,95.00
2019-02-23T03:35:21.800Z,95.30
2019-02-23T03:37:55.285Z,95.10
2019-02-23T03:40:28.769Z,94.60
2019-02-23T03:43:04.263Z,94.20
2019-02-23T03:45:37.388Z,94.10
2019-02-23T03:48:14.482Z,94.00
2019-02-23T03:50:49.499Z,94.20
2019-02-23T03:53:23.206Z,94.30
2019-02-23T03:55:56.831Z,95.40
2019-02-23T03:58:30.433Z,94.90
2019-02-23T04:01:05.641Z,94.50
2019-02-23T04:03:41.035Z,94.50
2019-02-23T04:06:18.862Z,94.80
2019-02-23T04:08:52.425Z,94.60
2019-02-23T04:11:27.489Z,94.50
2019-02-23T04:14:02.709Z,94.50
2019-02-23T04:16:36.242Z,94.60
2019-02-23T04:19:14.979Z,94.50
2019-02-23T04:21:51.718Z,94.50
2019-02-23T04:24:25.289Z,94.50
2019-02-23T04:27:01.587Z,94.20
2019-02-23T04:29:40.261Z,94.30
2019-02-23T04:32:16.179Z,94.40
2019-02-23T04:34:49.689Z,94.70
2019-02-23T04:37:27.620Z,94.60
2019-02-23T04:40:01.115Z,94.70
2019-02-23T04:42:37.837Z,94.60
2019-02-23T04:45:12.988Z,94.60
2019-02-23T04:47:46.424Z,94.70
2019-02-23T04:50:19.944Z,95.50
2019-02-23T04:52:53.408Z,97.40
2019-02-23T04:55:32.886Z,98.40
2019-02-23T04:58:06.398Z,99.20
2019-02-23T05:00:39.889Z,99.30
2019-02-23T05:03:14.393Z,98.90
2019-02-23T05:05:49.546Z,98.60
2019-02-23T05:08:23.006Z,98.00
2019-02-23T05:10:56.520Z,97.40
2019-02-23T05:13:29.958Z,97.00
2019-02-23T05:16:03.430Z,97.80
2019-02-23T05:18:36.899Z,98.30
2019-02-23T05:21:10.425Z,98.30
2019-02-23T05:23:43.850Z,98.20
2019-02-23T05:26:17.289Z,98.30
2019-02-23T05:28:50.783Z,98.00
2019-02-23T05:31:26.983Z,98.00
2019-02-23T05:34:00.500Z,97.80
2019-02-23T05:36:37.233Z,97.90
2019-02-23T05:39:13.452Z,97.50
2019-02-23T05:41:46.957Z,97.10
2019-02-23T05:44:22.111Z,97.40
2019-02-23T05:46:55.567Z,97.00
2019-02-23T05:49:29.072Z,96.70
2019-02-23T05:52:02.544Z,96.50
2019-02-23T05:54:37.279Z,96.50
2019-02-23T05:57:10.953Z,96.60
2019-02-23T05:59:45.467Z,96.40
2019-02-23T06:02:18.859Z,96.80
2019-02-23T06:04:52.324Z,97.10
2019-02-23T06:07:25.750Z,96.80
2019-02-23T06:09:59.226Z,96.60
2019-02-23T06:12:32.665Z,96.40
2019-02-23T06:15:09.446Z,96.30
2019-02-23T06:17:42.873Z,97.30
2019-02-23T06:20:16.333Z,98.10
2019-02-23T06:22:49.774Z,99.00
2019-02-23T06:25:23.243Z,99.10
2019-02-23T06:27:56.785Z,98.50
2019-02-23T06:30:30.375Z,98.00
2019-02-23T06:33:03.824Z,97.60
2019-02-23T06:35:37.256Z,97.30
2019-02-23T06:38:10.730Z,97.10
2019-02-23T06:40:44.240Z,97.40
2019-02-23T06:43:17.676Z,97.20
2019-02-23T06:45:51.150Z,97.00
2019-02-23T06:48:24.575Z,96.80
2019-02-23T06:50:58.041Z,97.30
2019-02-23T06:53:31.483Z,98.60
2019-02-23T06:56:05.087Z,99.00
2019-02-23T06:58:38.535Z,98.70
2019-02-23T07:01:12.120Z,98.60
2019-02-23T07:03:45.734Z,98.70
2019-02-23T07:06:19.159Z,98.70
2019-02-23T07:08:52.650Z,98.40
2019-02-23T07:11:26.144Z,98.60
2019-02-23T07:14:01.209Z,98.30
2019-02-23T07:19:31.964Z,98.40
2019-02-23T07:22:15.185Z,97.80
2019-02-23T07:24:40.537Z,97.80
2019-02-23T07:27:15.589Z,98.00
2019-02-23T07:29:49.067Z,98.00
2019-02-23T07:32:22.547Z,97.80
2019-02-23T07:34:55.979Z,98.00
2019-02-23T07:37:29.497Z,98.10
2019-02-23T07:40:02.925Z,97.70
2019-02-23T07:42:36.384Z,97.10
2019-02-23T07:45:10.568Z,96.40
2019-02-23T07:47:44.031Z,96.70
2019-02-23T07:50:17.543Z,96.30
2019-02-23T07:52:54.761Z,94.70
2019-02-23T07:55:28.185Z,92.50
2019-02-23T07:58:01.682Z,92.60
2019-02-23T08:00:35.129Z,92.30
2019-02-23T08:03:08.619Z,92.50
2019-02-23T08:05:42.053Z,89.70
2019-02-23T08:08:15.533Z,90.20
2019-02-23T08:10:48.976Z,89.90
2019-02-23T08:13:22.446Z,90.00
2019-02-23T08:15:55.901Z,89.20
2019-02-23T08:18:29.330Z,85.20
2019-02-23T08:21:02.809Z,84.90
2019-02-23T08:23:36.232Z,82.00
2019-02-23T08:26:09.701Z,76.80
2019-02-23T08:28:43.134Z,80.60
2019-02-23T08:31:16.590Z,78.40
2019-02-23T08:33:55.980Z,73.40
2019-02-23T08:36:30.444Z,73.60
2019-02-23T08:39:04.668Z,67.70
2019-02-23T08:41:38.538Z,68.80
2019-02-23T08:44:12.121Z,75.40
2019-02-23T08:46:45.699Z,79.30
2019-02-23T08:49:20.021Z,76.50
2019-02-23T08:51:53.448Z,71.80
2019-02-23T08:54:28.195Z,68.50
2019-02-23T08:57:02.316Z,62.80
2019-02-23T08:59:35.743Z,62.30
2019-02-23T09:02:09.222Z,66.70
2019-02-23T09:04:42.667Z,68.70
2019-02-23T09:07:16.165Z,71.50
2019-02-23T09:09:49.593Z,70.30
2019-02-23T09:12:23.071Z,69.20
2019-02-23T09:14:56.505Z,66.40
2019-02-23T09:17:29.987Z,70.40
2019-02-23T09:20:04.061Z,71.80
2019-02-23T09:22:37.582Z,69.90
2019-02-23T09:25:11.394Z,68.70
2019-02-23T09:27:44.904Z,69.90
2019-02-23T09:30:18.336Z,68.10
2019-02-23T09:32:51.808Z,68.70
2019-02-23T09:35:25.242Z,72.50
2019-02-23T09:37:59.673Z,71.50
2019-02-23T09:40:33.142Z,71.70
2019-02-23T09:43:06.577Z,72.50
2019-02-23T09:45:41.654Z,68.50
2019-02-23T09:48:15.085Z,66.80
2019-02-23T09:50:49.588Z,68.30
2019-02-23T09:53:23.008Z,65.40
2019-02-23T09:55:56.462Z,64.00
2019-02-23T09:58:31.258Z,64.50
2019-02-23T10:01:04.853Z,69.50
2019-02-23T10:03:38.280Z,68.10
2019-02-23T10:06:11.788Z,62.00
2019-02-23T10:08:45.301Z,60.80
2019-02-23T10:11:18.775Z,65.70
2019-02-23T10:13:52.208Z,62.80
2019-02-23T10:16:25.684Z,67.00
2019-02-23T10:18:59.126Z,65.90
2019-02-23T10:21:32.634Z,65.30
2019-02-23T10:24:06.061Z,64.10
2019-02-23T10:26:39.545Z,65.10
2019-02-23T10:29:13.006Z,64.50
2019-02-23T10:31:46.461Z,63.90
2019-02-23T10:34:19.945Z,61.80
2019-02-23T10:36:53.399Z,61.40
2019-02-23T10:39:26.873Z,60.80
2019-02-23T10:42:00.335Z,60.30
2019-02-23T10:44:33.817Z,60.20
2019-02-23T10:47:07.248Z,60.40
2019-02-23T10:49:40.729Z,61.80
2019-02-23T10:52:14.139Z,60.20
2019-02-23T10:54:47.652Z,58.60
2019-02-23T10:57:21.398Z,58.20
2019-02-23T10:59:54.916Z,54.60
2019-02-23T11:02:28.345Z,52.60
2019-02-23T11:05:01.869Z,51.40
2019-02-23T11:07:35.312Z,54.50
2019-02-23T11:10:09.499Z,57.10
2019-02-23T11:12:42.928Z,56.80
2019-02-23T11:15:18.039Z,57.50
2019-02-23T11:17:56.277Z,59.60
2019-02-23T11:20:29.893Z,57.10
2019-02-23T11:23:03.429Z,58.30
2019-02-23T11:25:36.788Z,58.60
2019-02-23T11:28:10.250Z,56.60
2019-02-23T11:30:43.714Z,57.80
2019-02-23T11:33:18.812Z,55.40
2019-02-23T11:35:53.616Z,56.10
2019-02-23T11:38:27.066Z,54.20
2019-02-23T11:41:00.500Z,55.60
2019-02-23T11:43:33.953Z,53.20
2019-02-23T11:46:07.423Z,56.00
2019-02-23T11:48:40.861Z,56.80
2019-02-23T11:51:14.341Z,56.30
2019-02-23T11:53:54.630Z,55.60
2019-02-23T11:56:22.885Z,59.00
2019-02-23T11:58:56.350Z,58.00
2019-02-23T12:01:29.852Z,56.40
2019-02-23T12:04:04.329Z,54.30
2019-02-23T12:06:37.860Z,53.10
2019-02-23T12:09:11.327Z,52.10
2019-02-23T12:11:44.769Z,53.40
2019-02-23T12:14:18.226Z,53.00
2019-02-23T12:16:51.724Z,53.10
2019-02-23T12:19:25.175Z,51.70
2019-02-23T12:21:58.648Z,52.50
2019-02-23T12:24:32.108Z,53.30
2019-02-23T12:27:05.518Z,54.00
2019-02-23T12:29:38.995Z,56.50
2019-02-23T12:32:12.427Z,54.60
2019-02-23T12:34:45.911Z,53.30
2019-02-23T12:37:19.326Z,53.60
2019-02-23T12:39:52.810Z,53.70
2019-02-23T12:42:27.693Z,54.20
2019-02-23T12:45:01.318Z,55.00
2019-02-23T12:47:34.777Z,55.50
2019-02-23T12:50:12.664Z,56.00
2019-02-23T12:52:46.147Z,56.20
2019-02-23T12:55:19.660Z,57.50
2019-02-23T12:57:53.128Z,57.40
2019-02-23T13:00:26.563Z,57.20
2019-02-23T13:03:00.021Z,57.20
2019-02-23T13:05:33.534Z,56.60
2019-02-23T13:08:08.622Z,56.60
2019-02-23T13:10:42.642Z,54.70
2019-02-23T13:13:45.169Z,53.50
2019-02-23T13:16:25.153Z,50.30
2019-02-23T13:19:35.175Z,50.20
2019-02-23T13:22:14.731Z,48.70
2019-02-23T13:25:02.386Z,49.00
2019-02-23T13:27:55.565Z,49.50
2019-02-23T13:30:46.655Z,51.90
2019-02-23T13:33:38.321Z,49.30
2019-02-23T13:36:17.606Z,51.00
2019-02-23T13:39:13.917Z,53.10
2019-02-23T13:41:53.463Z,53.00
2019-02-23T13:44:50.534Z,49.90
2019-02-23T13:47:54.374Z,49.20
2019-02-23T13:50:31.082Z,52.20
2019-02-23T13:53:39.696Z,49.30
2019-02-23T13:56:33.031Z,47.50
2019-02-23T13:59:09.764Z,49.70
2019-02-23T14:02:10.803Z,48.80
2019-02-23T14:05:03.918Z,48.50
2019-02-23T14:07:46.614Z,50.40
2019-02-23T14:10:46.009Z,52.20
2019-02-23T14:13:41.173Z,52.60
2019-02-23T14:16:29.977Z,50.70
2019-02-23T14:19:12.663Z,51.00
2019-02-23T14:22:22.607Z,50.60
2019-02-23T14:25:18.997Z,52.80
2019-02-23T14:28:07.441Z,51.50
2019-02-23T14:30:52.720Z,51.70
2019-02-23T14:33:47.293Z,52.20
2019-02-23T14:36:29.974Z,51.20
2019-02-23T14:39:25.116Z,52.40
2019-02-23T14:42:13.474Z,51.60
2019-02-23T14:45:10.100Z,50.00
2019-02-23T14:48:14.168Z,49.00
2019-02-23T14:51:19.942Z,47.90
2019-02-23T14:54:11.096Z,47.80
2019-02-23T14:57:09.001Z,47.90
2019-02-23T15:00:00.516Z,48.90
2019-02-23T15:02:49.108Z,51.00
2019-02-23T15:05:41.004Z,52.00
2019-02-23T15:08:26.810Z,51.90
2019-02-23T15:11:03.564Z,52.00
2019-02-23T15:14:04.275Z,51.10
2019-02-23T15:16:52.654Z,52.00
2019-02-23T15:19:48.903Z,50.50
2019-02-23T15:22:31.231Z,50.00
2019-02-23T15:25:19.850Z,51.00
2019-02-23T15:28:02.446Z,50.70
2019-02-23T15:30:41.867Z,52.50
2019-02-23T15:33:24.424Z,53.00
2019-02-23T15:36:15.797Z,55.00
2019-02-23T15:39:15.029Z,56.50
2019-02-23T15:42:19.353Z,56.60
2019-02-23T15:45:11.408Z,56.90
2019-02-23T15:48:09.397Z,56.50
2019-02-23T15:50:42.870Z,57.40
2019-02-23T15:53:16.322Z,58.10
2019-02-23T15:55:49.756Z,56.70
2019-02-23T15:58:23.217Z,57.80
2019-02-23T16:01:01.182Z,58.90
2019-02-23T16:03:34.651Z,59.50
2019-02-23T16:06:08.080Z,60.90
2019-02-23T16:08:41.537Z,61.50
2019-02-23T16:11:15.013Z,62.90
2019-02-23T16:13:48.545Z,62.00
2019-02-23T16:16:24.976Z,60.70
2019-02-23T16:19:00.050Z,59.40
2019-02-23T16:21:33.492Z,58.90
2019-02-23T16:24:07.095Z,61.60
2019-02-23T16:26:40.677Z,62.50
2019-02-23T16:29:14.265Z,63.20
2019-02-23T16:31:47.718Z,63.10
2019-02-23T16:34:21.183Z,63.70
2019-02-23T16:36:54.694Z,64.80
2019-02-23T16:39:29.101Z,65.80
2019-02-23T16:42:02.524Z,65.50
2019-02-23T16:44:35.965Z,67.20
2019-02-23T16:47:09.449Z,67.50
2019-02-23T16:49:42.893Z,67.80
2019-02-23T16:52:16.353Z,68.60
2019-02-23T16:54:50.944Z,68.90
2019-02-23T16:57:24.427Z,69.40
2019-02-23T16:59:57.891Z,69.70
2019-02-23T17:02:31.339Z,70.80
2019-02-23T17:05:06.858Z,72.60
2019-02-23T17:07:40.333Z,73.60
2019-02-23T17:10:13.804Z,73.50
2019-02-23T17:12:47.248Z,73.40
2019-02-23T17:15:20.753Z,74.90
2019-02-23T17:17:54.182Z,74.50
2019-02-23T17:20:27.658Z,74.60
2019-02-23T17:23:02.253Z,75.80
2019-02-23T17:25:35.867Z,75.70
2019-02-23T17:28:09.375Z,76.60
2019-02-23T17:30:42.807Z,76.70
2019-02-23T17:33:16.354Z,77.70
2019-02-23T17:35:49.802Z,77.80
2019-02-23T17:38:23.384Z,78.60
2019-02-23T17:40:56.786Z,78.80
2019-02-23T17:43:31.881Z,78.90
2019-02-23T17:46:05.332Z,79.30
2019-02-23T17:48:38.844Z,79.10
2019-02-23T17:51:13.935Z,79.40
2019-02-23T17:53:47.481Z,79.70
2019-02-23T17:56:20.954Z,80.10
2019-02-23T17:58:54.432Z,80.00
2019-02-23T18:01:32.372Z,79.90
2019-02-23T18:04:05.927Z,80.60
2019-02-23T18:06:39.412Z,79.50
2019-02-23T18:09:12.956Z,79.70
2019-02-23T18:11:46.713Z,79.90
2019-02-23T18:14:20.428Z,80.50
2019-02-23T18:16:53.998Z,80.20
2019-02-23T18:19:27.622Z,80.70
2019-02-23T18:22:03.533Z,80.50
2019-02-23T18:24:46.829Z,79.80
2019-02-23T18:27:45.090Z,79.70
2019-02-23T18:30:14.352Z,79.90
2019-02-23T18:32:47.939Z,79.80
2019-02-23T18:35:21.480Z,79.70
2019-02-23T18:37:54.980Z,79.40
2019-02-23T18:40:29.130Z,79.10
2019-02-23T18:43:02.860Z,78.80
2019-02-23T18:45:37.687Z,78.20
2019-02-23T18:48:11.382Z,78.40
2019-02-23T18:50:44.990Z,79.20
2019-02-23T18:53:18.551Z,79.40
2019-02-23T18:55:52.162Z,78.90
2019-02-23T18:58:25.845Z,79.30
2019-02-23T19:00:59.317Z,79.90
2019-02-23T19:03:32.822Z,80.30
2019-02-23T19:06:06.310Z,79.70
2019-02-23T19:08:40.967Z,80.40
2019-02-23T19:11:16.155Z,81.40
2019-02-23T19:13:49.624Z,80.30
2019-02-23T19:16:24.978Z,79.90
2019-02-23T19:18:58.560Z,80.20
2019-02-23T19:21:32.073Z,81.00
2019-02-23T19:24:05.543Z,81.00
2019-02-23T19:26:41.182Z,80.90
2019-02-23T19:29:14.622Z,81.10
2019-02-23T19:31:49.855Z,81.10
2019-02-23T19:34:23.381Z,81.40
2019-02-23T19:36:56.852Z,81.40
2019-02-23T19:39:30.579Z,81.30
2019-02-23T19:42:04.169Z,81.50
2019-02-23T19:44:37.642Z,81.70
2019-02-23T19:47:11.370Z,81.60
2019-02-23T19:49:47.541Z,82.20
2019-02-23T19:52:20.978Z,82.10
2019-02-23T19:54:54.443Z,82.30
2019-02-23T19:57:27.908Z,83.10
2019-02-23T20:00:01.375Z,83.00
2019-02-23T20:02:34.858Z,82.90
2019-02-23T20:05:09.672Z,82.70
2019-02-23T20:07:43.746Z,83.40
2019-02-23T20:10:17.204Z,82.80
2019-02-23T20:12:50.711Z,83.20
2019-02-23T20:15:24.218Z,83.50
2019-02-23T20:17:57.801Z,84.00
2019-02-23T20:20:31.304Z,84.20
2019-02-23T20:23:04.747Z,84.10
2019-02-23T20:25:38.214Z,83.80
2019-02-23T20:28:11.670Z,83.90
2019-02-23T20:30:45.157Z,83.90
2019-02-23T20:33:19.105Z,85.00
2019-02-23T20:35:52.693Z,85.10
2019-02-23T20:38:27.970Z,85.20
2019-02-23T20:41:01.441Z,85.20
2019-02-23T20:43:35.011Z,85.90
2019-02-23T20:46:08.452Z,86.40
2019-02-23T20:48:43.570Z,86.60
2019-02-23T20:51:17.155Z,86.90
2019-02-23T20:53:50.609Z,87.50
2019-02-23T20:56:24.040Z,87.80
2019-02-23T20:58:57.528Z,88.50
2019-02-23T21:01:30.957Z,88.40
2019-02-23T21:04:04.453Z,88.80
2019-02-23T21:06:42.306Z,88.50
2019-02-23T21:09:18.678Z,89.00
2019-02-23T21:11:52.152Z,89.40
2019-02-23T21:14:25.661Z,89.40
2019-02-23T21:16:59.081Z,89.20
2019-02-23T21:19:32.512Z,89.40
2019-02-23T21:22:05.968Z,89.40
2019-02-23T21:24:39.461Z,89.20
2019-02-23T21:27:13.343Z,89.00
2019-02-23T21:29:47.032Z,88.60
2019-02-23T21:32:20.464Z,88.70
2019-02-23T21:34:53.936Z,88.80
2019-02-23T21:37:27.650Z,88.90
2019-02-23T21:40:01.461Z,89.60
2019-02-23T21:42:34.880Z,90.00
2019-02-23T21:45:08.988Z,90.20
2019-02-23T21:47:42.497Z,90.70
2019-02-23T21:50:15.929Z,90.70
2019-02-23T21:52:49.413Z,90.80
2019-02-23T21:55:22.862Z,91.10
2019-02-23T21:57:56.328Z,91.30
2019-02-23T22:00:33.005Z,91.10
2019-02-23T22:03:10.408Z,91.10
2019-02-23T22:05:43.976Z,91.20
2019-02-23T22:08:23.265Z,91.40
2019-02-23T22:10:56.810Z,91.70
2019-02-23T22:13:30.289Z,92.20
2019-02-23T22:16:04.384Z,92.00
2019-02-23T22:18:37.996Z,92.30
2019-02-23T22:21:11.610Z,92.60
2019-02-23T22:23:45.072Z,92.40
2019-02-23T22:26:23.251Z,92.40
2019-02-23T22:28:56.806Z,92.70
2019-02-23T22:31:33.086Z,92.90
2019-02-23T22:34:07.823Z,93.20
2019-02-23T22:36:54.208Z,93.50
2019-02-23T22:39:31.741Z,93.50
2019-02-23T22:42:07.471Z,93.40
2019-02-23T22:44:40.997Z,93.30
2019-02-23T22:47:14.525Z,93.20
2019-02-23T22:49:48.016Z,93.00
2019-02-23T22:52:21.517Z,92.80
2019-02-23T22:54:56.837Z,92.80
2019-02-23T22:57:30.288Z,92.70
2019-02-23T23:00:03.754Z,92.80
2019-02-23T23:02:37.200Z,92.90
2019-02-23T23:05:12.386Z,92.90
2019-02-23T23:07:45.830Z,93.10
2019-02-23T23:10:19.338Z,93.40
2019-02-23T23:12:55.685Z,93.90
2019-02-23T23:15:31.333Z,93.50
2019-02-23T23:18:04.804Z,93.70
2019-02-23T23:20:38.280Z,93.60
2019-02-23T23:23:11.884Z,93.60
2019-02-23T23:25:47.408Z,93.50
2019-02-23T23:28:22.585Z,93.40
2019-02-23T23:30:56.102Z,93.30
2019-02-23T23:33:31.016Z,93.20
2019-02-23T23:36:08.311Z,93.10
2019-02-23T23:38:43.470Z,93.00
2019-02-23T23:41:19.883Z,93.00
2019-02-23T23:43:55.060Z,92.90
2019-02-23T23:46:34.565Z,92.80
2019-02-23T23:49:08.063Z,92.80
2019-02-23T23:51:44.373Z,92.70
2019-02-23T23:54:19.881Z,92.70
2019-02-23T23:56:53.576Z,92.50
2019-02-23T23:59:34.081Z,92.40
